Time;durP1;ratioP1;P1;durP2;ratioP2;P2;SDS_P1;SDS_P2;PMS_P1;PMS_P2;Temp;Humidity;BMP_temperature;BMP_pressure;BME280_temperature;BME280_humidity;BME280_pressure;Samples;Min_cycle;Max_cycle;Signal;HPM_P1;HPM_P2
2022/01/23 00:02:09;;;;;;;13.45;5.45;;;;;;;1.83;79.99;101408.54;714445;1174;114721;-76
2022/01/23 00:17:20;;;;;;;15.27;8.17;;;;;;;1.86;80.33;101424.84;714971;1174;115467;-76
2022/01/23 00:32:23;;;;;;;21.90;9.80;;;;;;;1.88;80.60;101434.25;715211;1174;115233;-75
2022/01/23 00:47:25;;;;;;;21.73;9.48;;;;;;;1.83;80.15;101436.14;714387;1173;115666;-73
2022/01/23 01:02:28;;;;;;;21.18;9.63;;;;;;;1.77;80.08;101434.61;714506;1174;115311;-74
2022/01/23 01:48:05;;;;;;;12.80;5.63;;;;;;;1.69;80.69;101435.74;714041;1173;114175;-74
2022/01/23 02:03:35;;;;;;;10.88;5.05;;;;;;;1.63;80.50;101427.28;713845;1174;115616;-75
2022/01/23 03:04:23;;;;;;;13.08;4.05;;;;;;;1.67;81.23;101479.78;713684;1173;116004;-74
2022/01/23 03:34:46;;;;;;;7.88;4.35;;;;;;;1.66;80.97;101516.89;713824;1174;115424;-74
2022/01/23 03:49:50;;;;;;;11.63;4.50;;;;;;;1.62;81.38;101517.88;713853;1174;115323;-74
2022/01/23 04:04:52;;;;;;;12.53;5.23;;;;;;;1.61;81.43;101523.94;713670;1173;118730;-74
2022/01/23 04:20:27;;;;;;;12.03;5.30;;;;;;;1.65;81.57;101530.73;713787;1174;115535;-74
2022/01/23 05:06:00;;;;;;;11.13;5.08;;;;;;;1.73;82.05;101541.69;714619;1174;115353;-77
2022/01/23 05:36:33;;;;;;;13.57;6.13;;;;;;;1.94;82.06;101585.89;714531;1174;114673;-77
2022/01/23 05:51:35;;;;;;;24.78;7.00;;;;;;;1.96;82.17;101597.05;714551;1173;115224;-77
2022/01/23 06:06:38;;;;;;;50.03;14.90;;;;;;;1.96;82.08;101615.18;714867;1174;115489;-76
2022/01/23 06:21:41;;;;;;;85.25;23.25;;;;;;;2.05;81.96;101640.78;714805;1174;115681;-75
2022/01/23 06:36:44;;;;;;;14.23;7.00;;;;;;;1.93;81.72;101657.53;714611;1174;115556;-77
2022/01/23 06:51:48;;;;;;;24.70;8.57;;;;;;;1.94;81.99;101671.30;714593;1174;115179;-76
2022/01/23 07:06:51;;;;;;;48.53;14.80;;;;;;;1.99;82.55;101696.19;714814;1174;114016;-75
2022/01/23 07:21:54;;;;;;;357.87;88.07;;;;;;;2.08;82.33;101709.74;714886;1174;114150;-74
2022/01/23 07:36:56;;;;;;;74.67;23.87;;;;;;;2.33;82.37;101723.63;715200;1174;115407;-73
2022/01/23 07:52:01;;;;;;;36.88;15.10;;;;;;;2.29;81.96;101747.92;714541;1174;115440;-78
2022/01/23 08:07:20;;;;;;;37.00;15.83;;;;;;;2.40;81.83;101770.08;714874;1174;114167;-82
2022/01/23 08:22:25;;;;;;;183.30;62.20;;;;;;;2.55;81.91;101789.48;714696;1174;114630;-82
2022/01/23 08:37:27;;;;;;;85.33;36.47;;;;;;;3.04;81.30;101789.70;714803;1174;114429;-80
2022/01/23 08:52:29;;;;;;;282.40;90.23;;;;;;;3.06;80.08;101778.39;714530;1173;114062;-76
2022/01/23 09:07:31;;;;;;;294.95;86.28;;;;;;;3.65;81.25;101784.19;714450;1174;115021;-75
2022/01/23 09:22:33;;;;;;;78.10;27.30;;;;;;;3.81;79.14;101810.45;714402;1174;115856;-74
2022/01/23 09:37:36;;;;;;;63.65;22.63;;;;;;;4.16;78.38;101826.52;714847;1174;115468;-72
2022/01/23 09:52:40;;;;;;;103.00;33.30;;;;;;;4.45;78.37;101822.83;715536;1174;115481;-73
2022/01/23 10:07:44;;;;;;;39.65;13.05;;;;;;;5.14;77.70;101803.66;715173;1174;116831;-76
2022/01/23 10:22:50;;;;;;;50.85;21.40;;;;;;;5.73;75.32;101819.44;714401;1174;115556;-74
2022/01/23 10:37:55;;;;;;;39.93;17.50;;;;;;;5.57;74.65;101831.41;714817;1173;114185;-77
2022/01/23 10:52:59;;;;;;;64.00;23.43;;;;;;;5.61;73.90;101843.41;715848;1174;114365;-78
2022/01/23 11:08:17;;;;;;;145.60;47.57;;;;;;;5.56;74.43;101847.96;714894;1174;115555;-78
2022/01/23 11:23:30;;;;;;;76.18;35.03;;;;;;;5.33;73.99;101868.82;714852;1174;115667;-78
2022/01/23 11:38:34;;;;;;;46.60;19.83;;;;;;;5.62;72.89;101863.30;714982;1174;114860;-76
2022/01/23 11:53:46;;;;;;;43.63;18.88;;;;;;;5.60;73.15;101870.34;714948;1174;114203;-71
2022/01/23 12:08:50;;;;;;;72.93;29.70;;;;;;;5.65;72.61;101866.63;715023;1174;115704;-71
2022/01/23 12:23:58;;;;;;;124.25;38.53;;;;;;;5.54;72.48;101901.83;715437;1174;114879;-79
2022/01/23 12:39:07;;;;;;;67.30;25.33;;;;;;;6.03;72.36;101893.73;714717;1174;115177;-77
2022/01/23 12:54:21;;;;;;;30.15;12.93;;;;;;;5.87;71.59;101909.98;714890;1174;114739;-72
2022/01/23 13:09:42;;;;;;;21.20;10.25;;;;;;;5.68;71.88;101912.53;714797;1174;115727;-73
2022/01/23 13:26:31;;;;;;;38.78;17.40;;;;;;;5.45;72.84;101916.92;714490;1174;115538;-75
2022/01/23 13:40:35;;;;;;;60.60;24.73;;;;;;;5.21;72.68;101925.70;714671;1174;115460;-72
2022/01/23 14:11:00;;;;;;;90.18;33.08;;;;;;;4.99;73.48;101947.36;714333;1174;115680;-72
2022/01/23 14:26:15;;;;;;;40.40;17.73;;;;;;;4.91;73.64;101959.78;714437;1174;114984;-80
2022/01/23 14:41:17;;;;;;;41.38;19.15;;;;;;;4.58;74.23;101957.52;718798;1167;115502;-82
2022/01/23 14:56:20;;;;;;;77.03;39.10;;;;;;;4.47;74.70;101950.98;716763;1174;114173;-81
2022/01/23 15:11:23;;;;;;;53.30;24.47;;;;;;;4.26;75.39;101964.72;714862;1174;115052;-80
2022/01/23 15:26:28;;;;;;;89.13;28.50;;;;;;;3.95;75.15;101963.17;714718;1174;115941;-80
2022/01/23 15:41:31;;;;;;;118.40;40.13;;;;;;;3.93;75.16;101957.17;716187;1174;114969;-79
2022/01/23 15:56:34;;;;;;;76.43;30.28;;;;;;;3.71;75.80;101970.88;714503;1174;114929;-75
2022/01/23 16:11:37;;;;;;;83.90;31.13;;;;;;;3.52;77.30;101975.78;715403;1173;115322;-74
2022/01/23 16:26:39;;;;;;;148.60;43.55;;;;;;;3.35;77.62;101983.25;714807;1174;114872;-75
2022/01/23 16:41:44;;;;;;;143.93;46.85;;;;;;;3.23;77.97;101995.69;715237;1173;114656;-82
2022/01/23 16:56:47;;;;;;;89.85;32.15;;;;;;;3.20;78.28;102000.97;714989;1174;115177;-79
2022/01/23 17:11:50;;;;;;;63.80;28.15;;;;;;;3.22;79.67;102006.11;714431;1174;115094;-77
2022/01/23 17:26:59;;;;;;;50.27;22.20;;;;;;;3.23;79.35;102018.19;715348;1174;114051;-75
2022/01/23 17:42:04;;;;;;;40.10;17.85;;;;;;;3.24;80.11;102038.05;714456;1174;115598;-75
2022/01/23 17:57:06;;;;;;;111.68;40.88;;;;;;;3.33;80.57;102036.03;714767;1174;115469;-75
2022/01/23 18:12:09;;;;;;;134.48;47.18;;;;;;;3.35;81.57;102055.89;715059;1174;115664;-80
2022/01/23 18:27:12;;;;;;;58.88;25.75;;;;;;;3.37;81.01;102067.92;714474;1174;115337;-80
2022/01/23 18:42:14;;;;;;;136.80;44.03;;;;;;;3.23;81.12;102072.66;714984;1174;114995;-81
2022/01/23 18:57:20;;;;;;;91.80;33.27;;;;;;;3.34;81.73;102081.00;714944;1174;116044;-81
2022/01/23 19:12:26;;;;;;;85.25;31.70;;;;;;;3.38;82.34;102098.17;714894;1173;113574;-81
2022/01/23 19:27:32;;;;;;;93.40;35.53;;;;;;;3.44;81.40;102108.36;715197;1174;114992;-82
2022/01/23 19:43:09;;;;;;;78.70;28.68;;;;;;;3.29;82.60;102107.06;715108;1174;114289;-82
2022/01/23 19:58:06;;;;;;;;;;;;;;;3.26;82.80;102106.28;715216;1174;114097;-81
2022/01/23 20:13:09;;;;;;;225.93;62.85;;;;;;;3.36;82.43;102132.84;715567;1174;100232;-84
2022/01/23 20:28:11;;;;;;;110.75;39.70;;;;;;;3.19;82.59;102128.12;715477;1173;115205;-82
2022/01/23 20:43:13;;;;;;;106.20;36.25;;;;;;;3.30;83.00;102155.46;715806;1174;113999;-79
2022/01/23 20:58:21;;;;;;;;;;;;;;;3.09;82.85;102153.44;714680;1174;116666;-78
2022/01/23 21:13:27;;;;;;;72.53;25.87;;;;;;;3.08;83.44;102131.85;714255;1174;99915;-79
2022/01/23 21:29:29;;;;;;;80.50;34.50;;;;;;;3.01;83.82;102145.89;714128;1174;114602;-79
2022/01/23 21:44:07;;;;;;;49.05;21.93;;;;;;;2.80;84.38;102142.95;714248;1174;114948;-80
2022/01/23 21:59:09;;;;;;;46.60;21.10;;;;;;;2.74;84.64;102137.08;713987;1173;115652;-79
2022/01/23 22:29:33;;;;;;;46.50;18.63;;;;;;;2.68;84.98;102138.09;713902;1174;115446;-80
2022/01/23 22:44:48;;;;;;;41.70;17.60;;;;;;;2.70;85.08;102125.09;714146;1174;116214;-79
2022/01/23 22:59:50;;;;;;;38.77;17.27;;;;;;;2.83;85.08;102148.05;713821;1174;114963;-80
2022/01/23 23:14:52;;;;;;;34.20;15.63;;;;;;;2.91;84.85;102159.98;713729;1174;115711;-81
2022/01/23 23:29:54;;;;;;;38.48;16.90;;;;;;;2.93;85.00;102178.92;713904;1174;115092;-80
2022/01/23 23:45:02;;;;;;;41.23;15.25;;;;;;;2.94;84.51;102189.28;714026;1174;114089;-80
